KAPG/APG METAR and TAF weather

Enter ICAO airport designator
Station Type Date Time Source
KAPG METAR 2020/01/23 20:58 UTC NOAA

KAPG 232058Z 00000KT 8SM OVC120 05/M08 A3036


Station Type Date Time Source
KAPG Decoded METAR 2020/01/23 20:58 UTC NOAA

Phillips Army Air Field / Aberdeen, MD, United States (KAPG) 39-28N 076-10W
Jan 23, 2020 - 03:58 PM EST / 2020.01.23 2058 UTC
Wind: Calm:0
Visibility: 8 mile(s):0
Sky conditions: overcast
Temperature: 41 F (5 C)
Dew Point: 17 F (-8 C)
Relative Humidity: 38%
Pressure (altimeter): 30.36 in. Hg (1028 hPa)
ob: KAPG 232058Z 00000KT 8SM OVC120 05/M08 A3036
cycle: 21

Station Type Date Time Source
KAPG TAF UTC NOAA

Error!

Example: see airport list